createdAt,value
2018-12-04T00:00:17.954Z,68.2
2018-12-04T00:01:18.239Z,68.3
2018-12-04T00:02:18.110Z,67.9
2018-12-04T00:03:18.000Z,68.3
2018-12-04T00:04:17.906Z,67.8
2018-12-04T00:05:17.792Z,67.9
2018-12-04T00:06:17.684Z,66.9
2018-12-04T00:07:17.571Z,67
2018-12-04T00:08:25.034Z,66.8
2018-12-04T00:09:24.924Z,67.2
2018-12-04T00:10:24.818Z,67.4
2018-12-04T00:11:25.106Z,67.2
2018-12-04T00:12:24.993Z,67.4
2018-12-04T00:13:24.883Z,67.8
2018-12-04T00:14:24.752Z,67
2018-12-04T00:15:24.636Z,66.9
2018-12-04T00:16:24.524Z,67.1
2018-12-04T00:17:24.379Z,67.5
2018-12-04T00:18:24.264Z,67.9
2018-12-04T00:19:24.126Z,68.3
2018-12-04T00:20:24.023Z,67.7
2018-12-04T00:21:24.280Z,68
2018-12-04T00:22:24.155Z,67.6
2018-12-04T00:23:24.042Z,68.1
2018-12-04T00:24:23.916Z,68.2
2018-12-04T00:25:23.820Z,68.1
2018-12-04T00:26:23.694Z,68.3
2018-12-04T00:27:23.576Z,67
2018-12-04T00:28:23.464Z,67
2018-12-04T00:29:23.350Z,66.5
2018-12-04T00:30:23.230Z,67.9
2018-12-04T00:31:23.571Z,67.4
2018-12-04T00:32:23.452Z,67.6
2018-12-04T00:33:25.986Z,67.8
2018-12-04T00:34:25.862Z,67.8
2018-12-04T00:35:25.729Z,67.7
2018-12-04T00:36:25.621Z,67.1
2018-12-04T00:37:25.496Z,67.6
2018-12-04T00:38:25.386Z,67.6
2018-12-04T00:39:25.278Z,67.6
2018-12-04T00:40:25.167Z,67.8
2018-12-04T00:41:25.464Z,67.7
2018-12-04T00:42:25.340Z,67.9
2018-12-04T00:43:25.206Z,67.9
2018-12-04T00:44:25.094Z,68.1
2018-12-04T00:45:24.973Z,67.7
2018-12-04T00:46:24.863Z,67.7
2018-12-04T00:47:24.739Z,67.4
2018-12-04T00:48:24.637Z,68.3
2018-12-04T00:49:24.526Z,67.9
2018-12-04T00:50:24.405Z,68.7
2018-12-04T00:51:24.697Z,68.7
2018-12-04T00:52:24.583Z,68.4
2018-12-04T00:53:24.447Z,68.3
2018-12-04T00:54:24.306Z,68.4
2018-12-04T00:55:24.167Z,68.3
2018-12-04T00:56:24.036Z,68
2018-12-04T00:57:23.911Z,67.8
2018-12-04T00:58:23.857Z,67.8
2018-12-04T00:59:23.739Z,67.9
2018-12-04T01:00:23.637Z,67.8
2018-12-04T01:01:23.960Z,67.7
2018-12-04T01:02:23.831Z,68
2018-12-04T01:03:23.711Z,68.2
2018-12-04T01:04:23.613Z,68.6
2018-12-04T01:05:23.488Z,68.2
2018-12-04T01:06:23.436Z,68.1
2018-12-04T01:07:23.330Z,68.5
2018-12-04T01:08:23.216Z,68.6
2018-12-04T01:09:23.102Z,68.9
2018-12-04T01:10:22.979Z,68.6
2018-12-04T01:11:23.265Z,68.9
2018-12-04T01:12:23.187Z,68.9
2018-12-04T01:13:23.061Z,68.6
2018-12-04T01:14:22.936Z,68.8
2018-12-04T01:15:22.782Z,68.7
2018-12-04T01:16:22.630Z,69
2018-12-04T01:17:22.494Z,68.8
2018-12-04T01:18:22.361Z,68.5
2018-12-04T01:19:22.242Z,68.7
2018-12-04T01:20:22.138Z,68.6
2018-12-04T01:21:22.434Z,68.7
2018-12-04T01:22:22.330Z,69
2018-12-04T01:23:22.204Z,69.2
2018-12-04T01:24:22.074Z,68.9
2018-12-04T01:25:21.968Z,69.4
2018-12-04T01:26:21.846Z,69.2
2018-12-04T01:27:21.739Z,68.9
2018-12-04T01:28:21.630Z,69
2018-12-04T01:29:21.522Z,69
2018-12-04T01:30:21.402Z,69.5
2018-12-04T01:31:21.698Z,68.1
2018-12-04T01:32:21.580Z,67.8
2018-12-04T01:33:21.455Z,68.1
2018-12-04T01:34:21.338Z,68
2018-12-04T01:35:21.222Z,68.2
2018-12-04T01:36:21.124Z,68.2
2018-12-04T01:37:21.002Z,68.2
2018-12-04T01:38:20.867Z,68.7
2018-12-04T01:39:20.732Z,68.4
2018-12-04T01:40:20.642Z,68.1
2018-12-04T01:41:20.932Z,68.3
2018-12-04T01:42:20.810Z,68.3
2018-12-04T01:43:20.697Z,68.3
2018-12-04T01:44:20.580Z,68.3
2018-12-04T01:45:20.462Z,68.3
2018-12-04T01:46:20.341Z,68.1
2018-12-04T01:47:20.244Z,68.3
2018-12-04T01:48:20.118Z,68.6
2018-12-04T01:49:20.016Z,68.4
2018-12-04T01:50:19.882Z,68.3
2018-12-04T01:51:20.184Z,68.6
2018-12-04T01:52:20.062Z,68.7
2018-12-04T01:53:19.974Z,68.3
2018-12-04T01:54:19.858Z,68.9
2018-12-04T01:55:19.738Z,68.6
2018-12-04T01:56:19.612Z,68.3
2018-12-04T01:57:19.482Z,67.9
2018-12-04T01:58:19.378Z,67.8
2018-12-04T01:59:19.232Z,67.8
2018-12-04T02:00:19.100Z,67.4
2018-12-04T02:01:19.374Z,67.7
2018-12-04T02:02:19.247Z,67.8
2018-12-04T02:03:19.126Z,67.4
2018-12-04T02:04:19.026Z,67.4
2018-12-04T02:05:18.912Z,67.4
2018-12-04T02:06:18.801Z,67.3
2018-12-04T02:07:18.710Z,67.4
2018-12-04T02:08:18.594Z,67.5
2018-12-04T02:09:18.498Z,67.6
2018-12-04T02:10:18.374Z,67.1
2018-12-04T02:11:18.664Z,67.4
2018-12-04T02:12:18.532Z,67.2
2018-12-04T02:13:18.421Z,67.3
2018-12-04T02:14:18.312Z,67.7
2018-12-04T02:15:18.207Z,67.6
2018-12-04T02:16:18.086Z,67.4
2018-12-04T02:17:17.954Z,67.6
2018-12-04T02:18:17.846Z,67.8
2018-12-04T02:19:17.712Z,68
2018-12-04T02:20:17.597Z,68
2018-12-04T02:21:17.879Z,67.3
2018-12-04T02:22:17.740Z,67.7
2018-12-04T02:23:17.658Z,67.4
2018-12-04T02:24:17.524Z,67.8
2018-12-04T02:25:17.455Z,68
2018-12-04T02:26:17.367Z,68
2018-12-04T02:27:17.228Z,67.9
2018-12-04T02:28:17.123Z,68
2018-12-04T02:29:17.000Z,67.8
2018-12-04T02:30:16.896Z,68
2018-12-04T02:31:17.190Z,67.8
2018-12-04T02:32:17.083Z,68
2018-12-04T02:33:17.018Z,67.9
2018-12-04T02:34:16.911Z,68.2
2018-12-04T02:35:16.786Z,68.4
2018-12-04T02:36:16.702Z,68.8
2018-12-04T02:37:16.608Z,68.9
2018-12-04T02:38:16.484Z,69.1
2018-12-04T02:39:16.363Z,69.6
2018-12-04T02:40:16.226Z,70
2018-12-04T02:41:16.546Z,70.8
2018-12-04T02:42:16.418Z,71.4
2018-12-04T02:43:16.324Z,71.6
2018-12-04T02:44:16.200Z,71.6
2018-12-04T02:45:16.090Z,72.1
2018-12-04T02:46:16.073Z,72.2
2018-12-04T02:47:15.962Z,72.4
2018-12-04T02:48:15.926Z,72.7
2018-12-04T02:49:15.818Z,72.9
2018-12-04T02:50:15.716Z,72.8
2018-12-04T02:51:16.019Z,73
2018-12-04T02:52:15.906Z,73.2
2018-12-04T02:53:15.857Z,73.4
2018-12-04T02:54:15.770Z,73.5
2018-12-04T02:55:15.648Z,73.6
2018-12-04T02:56:15.530Z,73.6
2018-12-04T02:57:15.404Z,74
2018-12-04T02:58:15.295Z,74
2018-12-04T02:59:15.237Z,75.1
2018-12-04T03:00:15.119Z,74.3
2018-12-04T03:01:15.401Z,74.4
2018-12-04T03:02:15.281Z,74.8
2018-12-04T03:03:15.156Z,74.9
2018-12-04T03:04:15.042Z,75
2018-12-04T03:05:14.951Z,75.2
2018-12-04T03:06:14.848Z,74.9
2018-12-04T03:07:14.752Z,74.9
2018-12-04T03:08:14.635Z,74.8
2018-12-04T03:09:14.540Z,75
2018-12-04T03:10:14.459Z,75.2
2018-12-04T03:11:14.789Z,75.2
2018-12-04T03:12:14.679Z,75.1
2018-12-04T03:13:14.547Z,74.9
2018-12-04T03:14:14.437Z,74.9
2018-12-04T03:15:14.348Z,74.9
2018-12-04T03:16:14.251Z,74.9
2018-12-04T03:17:14.152Z,74.8
2018-12-04T03:18:14.058Z,74.5
2018-12-04T03:19:13.971Z,74.3
2018-12-04T03:20:13.884Z,74
2018-12-04T03:21:14.296Z,74
2018-12-04T03:22:14.186Z,74
2018-12-04T03:23:14.080Z,74
2018-12-04T03:24:13.962Z,73.8
2018-12-04T03:25:13.850Z,73.7
2018-12-04T03:26:13.741Z,73.6
2018-12-04T03:27:13.643Z,73.5
2018-12-04T03:28:13.557Z,73.8
2018-12-04T03:29:13.438Z,73.9
2018-12-04T03:30:13.475Z,73.8
2018-12-04T03:31:13.852Z,73.8
2018-12-04T03:32:13.798Z,74
2018-12-04T03:33:13.779Z,74
2018-12-04T03:34:13.664Z,73.9
2018-12-04T03:35:13.557Z,74.7
2018-12-04T03:36:13.467Z,73.9
2018-12-04T03:37:13.354Z,74.3
2018-12-04T03:38:13.251Z,74.2
2018-12-04T03:39:13.138Z,74.3
2018-12-04T03:40:13.066Z,74.1
2018-12-04T03:41:13.386Z,74
2018-12-04T03:42:13.290Z,74.1
2018-12-04T03:43:13.193Z,74
2018-12-04T03:44:13.106Z,73.9
2018-12-04T03:45:13.006Z,73.7
2018-12-04T03:46:12.911Z,74
2018-12-04T03:47:12.816Z,73.6
2018-12-04T03:48:12.722Z,73.4
2018-12-04T03:49:12.627Z,73.1
2018-12-04T03:50:12.525Z,73
2018-12-04T03:51:12.832Z,72.6
2018-12-04T03:52:12.732Z,72.5
2018-12-04T03:53:12.617Z,73.2
2018-12-04T03:54:12.501Z,72.4
2018-12-04T03:55:12.426Z,72.3
2018-12-04T03:56:12.336Z,72.5
2018-12-04T03:57:12.243Z,72.4
2018-12-04T03:58:12.156Z,72.2
2018-12-04T03:59:12.075Z,72.2
2018-12-04T04:00:11.981Z,72.4
2018-12-04T04:01:12.302Z,72.4
2018-12-04T04:02:12.187Z,72.3
2018-12-04T04:03:12.067Z,72.3
2018-12-04T04:04:11.976Z,72.4
2018-12-04T04:05:11.859Z,72.4
2018-12-04T04:06:11.764Z,72.5
2018-12-04T04:07:11.656Z,72.6
2018-12-04T04:08:11.569Z,72.6
2018-12-04T04:09:11.469Z,72.9
2018-12-04T04:10:11.370Z,72.9
2018-12-04T04:11:11.731Z,73.1
2018-12-04T04:12:11.657Z,72.9
2018-12-04T04:13:11.550Z,72.7
2018-12-04T04:14:11.514Z,72.8
2018-12-04T04:15:11.421Z,73
2018-12-04T04:16:11.327Z,72.9
2018-12-04T04:17:11.215Z,72.9
2018-12-04T04:18:14.068Z,73.1
2018-12-04T04:19:13.982Z,73.2
2018-12-04T04:20:13.863Z,73.2
2018-12-04T04:21:14.182Z,73.3
2018-12-04T04:22:14.079Z,73.1
2018-12-04T04:23:13.976Z,73
2018-12-04T04:24:13.870Z,72.9
2018-12-04T04:25:13.777Z,72.8
2018-12-04T04:26:13.683Z,73.1
2018-12-04T04:27:13.591Z,73
2018-12-04T04:28:13.467Z,73.1
2018-12-04T04:29:13.355Z,72.9
2018-12-04T04:30:13.244Z,72.7
2018-12-04T04:31:13.526Z,72.5
2018-12-04T04:32:13.442Z,72.4
2018-12-04T04:33:13.324Z,72.6
2018-12-04T04:34:13.203Z,72.4
2018-12-04T04:35:13.108Z,72.5
2018-12-04T04:36:13.053Z,72.5
2018-12-04T04:37:12.962Z,72.5
2018-12-04T04:38:12.884Z,72
2018-12-04T04:39:12.782Z,71.8
2018-12-04T04:40:12.700Z,72.1
2018-12-04T04:41:13.006Z,72.1
2018-12-04T04:42:12.907Z,72.2
2018-12-04T04:43:12.837Z,72.9
2018-12-04T04:44:12.750Z,72.2
2018-12-04T04:45:12.652Z,72.1
2018-12-04T04:46:12.547Z,72.1
2018-12-04T04:47:12.455Z,72
2018-12-04T04:48:12.359Z,72.1
2018-12-04T04:49:12.261Z,72
2018-12-04T04:50:12.172Z,72.4
2018-12-04T04:51:12.483Z,72.7
2018-12-04T04:52:12.392Z,72.4
2018-12-04T04:53:12.294Z,72.5
2018-12-04T04:54:12.212Z,72.5
2018-12-04T04:55:12.118Z,72.5
2018-12-04T04:56:12.022Z,72.7
2018-12-04T04:57:11.914Z,72.4
2018-12-04T04:58:11.791Z,72.8
2018-12-04T04:59:11.702Z,73
2018-12-04T05:00:11.623Z,73
2018-12-04T05:01:11.969Z,73.3
2018-12-04T05:02:11.920Z,73.3
2018-12-04T05:03:11.834Z,74.3
2018-12-04T05:04:11.757Z,74.2
2018-12-04T05:05:11.671Z,73.6
2018-12-04T05:06:11.558Z,73.7
2018-12-04T05:07:11.472Z,73.7
2018-12-04T05:08:11.384Z,73.7
2018-12-04T05:09:11.307Z,72.9
2018-12-04T05:10:11.271Z,72.8
2018-12-04T05:11:11.572Z,73.4
2018-12-04T05:12:11.468Z,73.4
2018-12-04T05:13:11.351Z,73.5
2018-12-04T05:14:11.245Z,73.4
2018-12-04T05:15:11.135Z,73.4
2018-12-04T05:16:11.079Z,73.6
2018-12-04T05:17:11.009Z,73.5
2018-12-04T05:18:10.913Z,73.5
2018-12-04T05:19:10.812Z,73.9
2018-12-04T05:20:10.718Z,74.1
2018-12-04T05:21:11.062Z,74.4
2018-12-04T05:22:10.952Z,74.6
2018-12-04T05:23:10.824Z,75
2018-12-04T05:24:10.744Z,75.2
2018-12-04T05:25:10.665Z,75.3
2018-12-04T05:26:10.581Z,75.5
2018-12-04T05:27:10.493Z,75.6
2018-12-04T05:28:10.391Z,75.6
2018-12-04T05:29:10.278Z,75.8
2018-12-04T05:30:10.153Z,76
2018-12-04T05:31:10.476Z,76.3
2018-12-04T05:32:10.371Z,76.8
2018-12-04T05:33:10.294Z,76.9
2018-12-04T05:34:10.176Z,77.1
2018-12-04T05:35:10.068Z,77.2
2018-12-04T05:36:09.953Z,77.4
2018-12-04T05:37:09.840Z,77.5
2018-12-04T05:38:09.769Z,77.7
2018-12-04T05:39:09.670Z,77.7
2018-12-04T05:40:09.562Z,77.8
2018-12-04T05:41:09.884Z,77.9
2018-12-04T05:42:09.843Z,78
2018-12-04T05:43:09.739Z,78
2018-12-04T05:44:09.650Z,78.1
2018-12-04T05:45:09.544Z,78.1
2018-12-04T05:46:09.442Z,78
2018-12-04T05:47:09.326Z,78.1
2018-12-04T05:48:09.226Z,77.4
2018-12-04T05:49:09.134Z,77.3
2018-12-04T05:50:09.027Z,78
2018-12-04T05:51:09.358Z,77.3
2018-12-04T05:52:09.236Z,78.8
2018-12-04T05:53:09.116Z,78.1
2018-12-04T05:54:09.003Z,78.3
2018-12-04T05:55:08.926Z,78.4
2018-12-04T05:56:08.825Z,78.6
2018-12-04T05:57:08.786Z,78.5
2018-12-04T05:58:08.686Z,78.7
2018-12-04T05:59:08.581Z,79
2018-12-04T06:00:08.490Z,78.9
2018-12-04T06:01:08.790Z,79.1
2018-12-04T06:02:08.690Z,79.2
2018-12-04T06:03:08.625Z,79.6
2018-12-04T06:04:08.499Z,79.6
2018-12-04T06:05:08.395Z,79.2
2018-12-04T06:06:08.284Z,79.6
2018-12-04T06:07:08.166Z,80.3
2018-12-04T06:08:08.043Z,80.3
2018-12-04T06:09:07.921Z,80.5
2018-12-04T06:10:07.814Z,80.9
2018-12-04T06:11:08.139Z,81
2018-12-04T06:12:08.036Z,81.3
2018-12-04T06:13:07.922Z,81.1
2018-12-04T06:14:07.816Z,81.1
2018-12-04T06:15:07.707Z,81
2018-12-04T06:16:07.620Z,81
2018-12-04T06:17:07.516Z,81
2018-12-04T06:18:07.425Z,81.1
2018-12-04T06:19:07.319Z,81.1
2018-12-04T06:20:07.218Z,81
2018-12-04T06:21:07.538Z,81.4
2018-12-04T06:22:07.458Z,81.4
2018-12-04T06:23:07.340Z,81.2
2018-12-04T06:24:07.258Z,81
2018-12-04T06:25:07.175Z,80.9
2018-12-04T06:26:07.100Z,80.9
2018-12-04T06:27:07.013Z,80.5
2018-12-04T06:28:06.899Z,79.8
2018-12-04T06:29:06.788Z,79.6
2018-12-04T06:30:06.686Z,80.3
2018-12-04T06:31:06.981Z,79.9
2018-12-04T06:32:06.900Z,80
2018-12-04T06:33:06.795Z,79.8
2018-12-04T06:34:06.688Z,79.7
2018-12-04T06:35:06.579Z,79.6
2018-12-04T06:36:06.473Z,79.8
2018-12-04T06:37:06.368Z,79.8
2018-12-04T06:38:06.252Z,79.9
2018-12-04T06:39:06.146Z,79.8
2018-12-04T06:40:06.035Z,80.1
2018-12-04T06:41:06.311Z,80.1
2018-12-04T06:42:06.221Z,80.2
2018-12-04T06:43:06.127Z,79.8
2018-12-04T06:44:06.027Z,80.5
2018-12-04T06:45:05.938Z,80
2018-12-04T06:46:05.817Z,80.1
2018-12-04T06:47:05.702Z,80.2
2018-12-04T06:48:05.591Z,80.1
2018-12-04T06:49:05.474Z,79.5
2018-12-04T06:50:05.357Z,80
2018-12-04T06:51:05.725Z,79.6
2018-12-04T06:52:05.608Z,80
2018-12-04T06:53:05.516Z,79.6
2018-12-04T06:54:05.439Z,80.4
2018-12-04T06:55:05.334Z,80.3
2018-12-04T06:56:05.221Z,80.1
2018-12-04T06:57:05.170Z,80
2018-12-04T06:58:05.078Z,79.9
2018-12-04T06:59:05.010Z,80.9
2018-12-04T07:00:04.902Z,80.8
2018-12-04T07:01:05.281Z,80.9
2018-12-04T07:02:05.170Z,81.2
2018-12-04T07:03:05.046Z,81.6
2018-12-04T07:04:04.949Z,81.7
2018-12-04T07:05:04.842Z,81.7
2018-12-04T07:06:04.727Z,81.8
2018-12-04T07:07:04.619Z,82.1
2018-12-04T07:08:04.549Z,81.9
2018-12-04T07:09:04.466Z,81.8
2018-12-04T07:10:04.397Z,82.3
2018-12-04T07:11:04.717Z,82.5
2018-12-04T07:12:04.621Z,82.4
2018-12-04T07:13:04.501Z,83
2018-12-04T07:14:04.385Z,83.2
2018-12-04T07:15:04.288Z,82.8
2018-12-04T07:16:04.220Z,83.3
2018-12-04T07:17:04.124Z,83.6
2018-12-04T07:18:04.013Z,83.4
2018-12-04T07:19:03.905Z,82.2
2018-12-04T07:21:03.941Z,82.6
2018-12-04T07:22:03.852Z,83.1
2018-12-04T07:23:03.737Z,83
2018-12-04T07:24:03.621Z,83.2
2018-12-04T07:25:03.500Z,82.9
2018-12-04T07:26:03.391Z,82.8
2018-12-04T07:27:03.317Z,83.1
2018-12-04T07:28:03.201Z,82.9
2018-12-04T07:29:03.093Z,83.1
2018-12-04T07:30:02.987Z,83.2
2018-12-04T07:31:03.317Z,83.2
2018-12-04T07:32:03.221Z,83
2018-12-04T07:33:03.124Z,83
2018-12-04T07:34:03.013Z,82.9
2018-12-04T07:35:02.910Z,82.2
2018-12-04T07:36:02.796Z,82.1
2018-12-04T07:37:02.698Z,82
2018-12-04T07:38:02.619Z,82.2
2018-12-04T07:39:02.516Z,82
2018-12-04T07:40:02.432Z,82.6
2018-12-04T07:41:02.751Z,82.3
2018-12-04T07:42:02.651Z,82.5
2018-12-04T07:43:02.542Z,82.5
2018-12-04T07:44:02.451Z,82.5
2018-12-04T07:45:02.336Z,83.2
2018-12-04T07:46:02.231Z,83.6
2018-12-04T07:47:02.100Z,83.5
2018-12-04T07:48:01.990Z,83.6
2018-12-04T07:49:01.896Z,83.4
2018-12-04T07:50:01.789Z,83.6
2018-12-04T07:51:02.091Z,83.2
2018-12-04T07:52:01.995Z,84.5
2018-12-04T07:53:01.897Z,84.8
2018-12-04T07:54:01.809Z,83.4
2018-12-04T07:55:01.717Z,82.7
2018-12-04T07:56:02.995Z,82.9
2018-12-04T07:57:02.885Z,82.3
2018-12-04T08:01:02.555Z,81.2
2018-12-04T08:02:02.443Z,82
2018-12-04T08:03:02.323Z,81.6
2018-12-04T08:04:02.217Z,81.5
2018-12-04T08:05:02.151Z,81.4
2018-12-04T08:06:02.025Z,81.2
2018-12-04T08:07:01.914Z,81.4
2018-12-04T08:08:01.804Z,81.8
2018-12-04T08:09:01.719Z,81.8
2018-12-04T08:10:01.659Z,81.6
2018-12-04T08:11:02.041Z,82
2018-12-04T08:12:01.970Z,81.9
2018-12-04T08:13:01.872Z,81.8
2018-12-04T08:14:01.779Z,81
2018-12-04T08:15:01.697Z,81.9
2018-12-04T08:16:01.653Z,82.2
2018-12-04T08:18:01.295Z,81.6
2018-12-04T08:20:00.929Z,80.9
2018-12-04T08:21:01.274Z,80.7
2018-12-04T08:22:01.180Z,81.3
2018-12-04T08:23:01.076Z,81.3
2018-12-04T08:24:00.968Z,81
2018-12-04T08:25:00.873Z,81.3
2018-12-04T08:26:00.793Z,81.5
2018-12-04T08:27:00.663Z,81.5
2018-12-04T08:28:00.554Z,81.8
2018-12-04T08:29:00.452Z,81.6
2018-12-04T08:30:00.344Z,82.1
2018-12-04T08:31:00.650Z,82.4
2018-12-04T08:32:00.555Z,82.6
2018-12-04T08:33:00.463Z,82.1
2018-12-04T08:34:00.348Z,82.3
2018-12-04T08:35:00.233Z,82.4
2018-12-04T08:36:00.122Z,82.3
2018-12-04T08:37:00.033Z,82.6
2018-12-04T08:37:59.924Z,82.5
2018-12-04T08:38:59.838Z,82.1
2018-12-04T08:39:59.747Z,82.5
2018-12-04T08:41:00.037Z,82.5
2018-12-04T08:41:59.949Z,82.7
2018-12-04T08:42:59.854Z,82.8
2018-12-04T08:43:59.747Z,82.7
2018-12-04T08:44:59.633Z,82.5
2018-12-04T08:45:59.530Z,82.3
2018-12-04T08:46:59.412Z,82.2
2018-12-04T08:47:59.327Z,82
2018-12-04T08:49:00.490Z,82
2018-12-04T08:50:00.388Z,81.6
2018-12-04T08:51:00.698Z,81.3
2018-12-04T08:52:00.603Z,82.1
2018-12-04T08:53:00.520Z,82.1
2018-12-04T08:54:00.388Z,82.1
2018-12-04T08:55:00.285Z,82.3
2018-12-04T08:56:00.167Z,82.3
2018-12-04T08:57:00.037Z,82.5
2018-12-04T08:57:59.937Z,82.7
2018-12-04T08:58:59.825Z,82.5
2018-12-04T08:59:59.730Z,82.7
2018-12-04T09:01:01.393Z,82.7
2018-12-04T09:02:01.432Z,82.7
2018-12-04T09:03:01.320Z,82.7
2018-12-04T09:04:01.233Z,82.6
2018-12-04T09:05:01.113Z,82.5
2018-12-04T09:06:01.016Z,82.1
2018-12-04T09:07:00.985Z,81.4
2018-12-04T09:08:00.893Z,82.3
2018-12-04T09:09:00.795Z,81.2
2018-12-04T09:10:00.689Z,80.7
2018-12-04T09:11:00.994Z,80.9
2018-12-04T09:12:00.893Z,81.6
2018-12-04T09:13:00.767Z,81.4
2018-12-04T09:14:00.654Z,81.4
2018-12-04T09:15:00.537Z,82
2018-12-04T09:16:00.448Z,81.8
2018-12-04T09:17:00.347Z,82.2
2018-12-04T09:18:00.224Z,82.5
2018-12-04T09:19:00.205Z,82.4
2018-12-04T09:20:00.294Z,82.6
2018-12-04T09:21:01.117Z,82.6
2018-12-04T09:22:01.315Z,82.9
2018-12-04T09:23:01.539Z,83.8
2018-12-04T09:24:01.697Z,83
2018-12-04T09:25:01.954Z,83
2018-12-04T09:26:02.060Z,82.9
2018-12-04T09:27:06.583Z,83
2018-12-04T09:28:06.788Z,83.1
2018-12-04T09:29:06.972Z,83.2
2018-12-04T09:30:07.051Z,83.2
2018-12-04T09:31:07.485Z,83.4
2018-12-04T09:32:07.367Z,83.4
2018-12-04T09:33:07.245Z,83.5
2018-12-04T09:34:07.141Z,83.6
2018-12-04T09:35:07.035Z,83.6
2018-12-04T09:36:06.933Z,83.7
2018-12-04T09:37:06.904Z,84
2018-12-04T09:38:06.798Z,83.9
2018-12-04T09:39:06.725Z,83.8
2018-12-04T09:40:06.627Z,84
2018-12-04T09:41:06.914Z,84.5
2018-12-04T09:42:06.837Z,84.3
2018-12-04T09:43:06.713Z,83.6
2018-12-04T09:44:06.638Z,83.5
2018-12-04T09:45:06.522Z,83.3
2018-12-04T09:46:06.449Z,82.8
2018-12-04T09:47:06.330Z,82.1
2018-12-04T09:49:05.973Z,81.5
2018-12-04T09:50:05.905Z,81.1
2018-12-04T09:51:06.255Z,81
2018-12-04T09:52:06.147Z,81.6
2018-12-04T09:53:06.063Z,81.2
2018-12-04T09:54:05.963Z,81.3
2018-12-04T09:55:05.849Z,80.5
2018-12-04T09:56:05.729Z,80.7
2018-12-04T09:57:05.617Z,80.9
2018-12-04T09:58:05.511Z,81.5
2018-12-04T09:59:05.601Z,82.3
2018-12-04T10:00:05.634Z,82.3
2018-12-04T10:01:05.939Z,81.9
2018-12-04T10:02:05.831Z,82
2018-12-04T10:03:05.757Z,82.9
2018-12-04T10:04:05.681Z,83
2018-12-04T10:05:05.564Z,83.2
2018-12-04T10:06:05.470Z,83.1
2018-12-04T10:07:05.349Z,83.4
2018-12-04T10:08:05.213Z,83.6
2018-12-04T10:09:05.089Z,84.1
2018-12-04T10:10:05.009Z,84.3
2018-12-04T10:11:05.320Z,84.8
2018-12-04T10:12:05.203Z,85
2018-12-04T10:13:05.083Z,85.4
2018-12-04T10:14:04.982Z,85.5
2018-12-04T10:15:04.886Z,85.4
2018-12-04T10:16:04.782Z,85.6
2018-12-04T10:17:04.675Z,85.7
2018-12-04T10:18:04.568Z,85.8
2018-12-04T10:19:04.455Z,86
2018-12-04T10:20:04.365Z,85.5
2018-12-04T10:21:04.696Z,85.5
2018-12-04T10:22:04.600Z,84.8
2018-12-04T10:23:04.494Z,84
2018-12-04T10:24:04.387Z,84.4
2018-12-04T10:25:04.280Z,84.1
2018-12-04T10:26:04.173Z,84.4
2018-12-04T10:27:04.047Z,84.8
2018-12-04T10:28:03.914Z,85.2
2018-12-04T10:29:03.799Z,85.4
2018-12-04T10:30:03.683Z,85.7
2018-12-04T10:31:04.001Z,85.6
2018-12-04T10:32:03.869Z,85
2018-12-04T10:33:03.749Z,85
2018-12-04T10:34:03.644Z,85.4
2018-12-04T10:35:03.543Z,85.8
2018-12-04T10:36:03.453Z,85.6
2018-12-04T10:37:03.345Z,85.8
2018-12-04T10:38:03.222Z,85.8
2018-12-04T10:39:03.103Z,85.6
2018-12-04T10:40:02.997Z,85.7
2018-12-04T10:41:03.303Z,85.9
2018-12-04T10:42:03.197Z,86
2018-12-04T10:43:03.094Z,85.7
2018-12-04T10:44:02.965Z,85.6
2018-12-04T10:45:02.858Z,86.2
2018-12-04T10:46:02.755Z,87
2018-12-04T10:47:02.659Z,86.1
2018-12-04T10:48:02.531Z,85.1
2018-12-04T10:49:02.416Z,85.4
2018-12-04T10:50:02.289Z,85.4
2018-12-04T10:51:02.585Z,85.6
2018-12-04T10:52:02.463Z,85.7
2018-12-04T10:53:02.357Z,86
2018-12-04T10:54:02.226Z,86.2
2018-12-04T10:55:02.161Z,84.1
2018-12-04T10:56:02.085Z,83.5
2018-12-04T10:57:01.977Z,82.4
2018-12-04T10:58:01.932Z,82.1
2018-12-04T10:59:01.846Z,81
2018-12-04T11:00:01.739Z,81.9
2018-12-04T11:01:02.084Z,82.1
2018-12-04T11:02:01.962Z,82.7
2018-12-04T11:03:01.846Z,82.8
2018-12-04T11:04:01.749Z,83.2
2018-12-04T11:05:01.643Z,84.1
2018-12-04T11:06:01.543Z,84.2
2018-12-04T11:07:01.429Z,84.5
2018-12-04T11:08:01.299Z,84.9
2018-12-04T11:09:01.197Z,84.4
2018-12-04T11:10:01.078Z,85.2
2018-12-04T11:11:01.388Z,84.8
2018-12-04T11:12:01.332Z,84.6
2018-12-04T11:13:01.216Z,84.8
2018-12-04T11:14:01.135Z,84.6
2018-12-04T11:15:01.091Z,84.9
2018-12-04T11:16:00.975Z,85.6
2018-12-04T11:17:00.875Z,85.5
2018-12-04T11:18:00.773Z,85.5
2018-12-04T11:19:00.658Z,85.6
2018-12-04T11:20:00.561Z,85.5
2018-12-04T11:21:00.911Z,85.6
2018-12-04T11:22:00.797Z,85.7
2018-12-04T11:23:00.671Z,86
2018-12-04T11:24:00.587Z,85.4
2018-12-04T11:26:01.572Z,83.7
2018-12-04T11:28:01.173Z,83.2
2018-12-04T11:30:00.863Z,82.7
2018-12-04T11:34:00.356Z,82.1
2018-12-04T11:35:00.297Z,82.3
2018-12-04T11:36:00.206Z,81.6
2018-12-04T11:37:00.093Z,81.6
2018-12-04T11:38:00.003Z,81.8
2018-12-04T11:39:59.612Z,82
2018-12-04T11:40:59.944Z,81.9
2018-12-04T11:41:59.824Z,82.9
2018-12-04T11:42:59.732Z,83.1
2018-12-04T11:43:59.619Z,83.1
2018-12-04T11:44:59.514Z,83
2018-12-04T11:45:59.399Z,83
2018-12-04T11:46:59.306Z,83
2018-12-04T11:47:59.192Z,83.2
2018-12-04T11:48:59.086Z,83.3
2018-12-04T11:49:58.973Z,83.6
2018-12-04T11:51:00.945Z,84
2018-12-04T11:52:00.844Z,84.2
2018-12-04T11:53:00.746Z,84.1
2018-12-04T11:54:00.646Z,84.5
2018-12-04T11:55:00.524Z,84.5
2018-12-04T11:56:00.420Z,84.4
2018-12-04T11:57:00.328Z,84.7
2018-12-04T11:58:00.215Z,84.7
2018-12-04T11:59:00.092Z,85.2
2018-12-04T11:59:59.993Z,85
2018-12-04T12:01:00.354Z,85.7
2018-12-04T12:02:00.244Z,85.6
2018-12-04T12:03:00.157Z,85.7
2018-12-04T12:04:00.028Z,85.8
2018-12-04T12:04:59.926Z,86.2
2018-12-04T12:05:59.809Z,86.3
2018-12-04T12:06:59.693Z,86.2
2018-12-04T12:07:59.592Z,86.4
2018-12-04T12:08:59.510Z,86
2018-12-04T12:09:59.412Z,85.8
2018-12-04T12:11:01.047Z,85.7
2018-12-04T12:12:00.976Z,86.1
2018-12-04T12:13:00.887Z,86.6
2018-12-04T12:14:00.810Z,85.8
2018-12-04T12:17:00.167Z,84.9
2018-12-04T12:18:00.054Z,84.4
2018-12-04T12:19:00.021Z,84.4
2018-12-04T12:21:00.069Z,84
2018-12-04T12:21:59.951Z,84.5
2018-12-04T12:22:59.845Z,85
2018-12-04T12:23:59.756Z,84.8
2018-12-04T12:24:59.638Z,85
2018-12-04T12:25:59.510Z,85.2
2018-12-04T12:26:59.405Z,85.2
2018-12-04T12:27:59.305Z,84.8
2018-12-04T12:28:59.175Z,84.5
2018-12-04T12:29:59.099Z,84.1
2018-12-04T12:30:59.420Z,84.6
2018-12-04T12:31:59.303Z,85.5
2018-12-04T12:32:59.183Z,85.2
2018-12-04T12:33:59.082Z,85.4
2018-12-04T12:34:59.013Z,85
2018-12-04T12:35:58.914Z,84.7
2018-12-04T12:36:58.811Z,84.9
2018-12-04T12:37:58.697Z,85
2018-12-04T12:38:58.582Z,85.2
2018-12-04T12:39:58.449Z,84.7
2018-12-04T12:40:58.803Z,85.4
2018-12-04T12:41:58.673Z,85.6
2018-12-04T12:42:58.567Z,85.3
2018-12-04T12:44:58.287Z,85
2018-12-04T12:45:58.174Z,84.3
2018-12-04T12:46:58.061Z,84.8
2018-12-04T12:47:57.951Z,85.1
2018-12-04T12:48:57.831Z,85
2018-12-04T12:49:57.730Z,85.6
2018-12-04T12:50:58.065Z,85.2
2018-12-04T12:51:57.963Z,85.4
2018-12-04T12:52:57.846Z,85.7
2018-12-04T12:53:57.744Z,86.1
2018-12-04T12:54:57.631Z,85.6
2018-12-04T12:55:57.533Z,85.9
2018-12-04T12:56:57.432Z,85.8
2018-12-04T12:57:57.316Z,85.7
2018-12-04T12:58:57.209Z,85.8
2018-12-04T12:59:57.099Z,86
2018-12-04T13:00:57.432Z,86.1
2018-12-04T13:01:57.338Z,85.7
2018-12-04T13:02:57.231Z,85.8
2018-12-04T13:03:57.125Z,86.1
2018-12-04T13:04:57.014Z,85.8
2018-12-04T13:05:56.897Z,85.6
2018-12-04T13:06:56.799Z,85.7
2018-12-04T13:07:56.726Z,86.2
2018-12-04T13:08:56.629Z,86
2018-12-04T13:09:56.515Z,86.3
2018-12-04T13:10:56.893Z,86.4
2018-12-04T13:11:56.784Z,86.5
2018-12-04T13:12:56.701Z,86.6
2018-12-04T13:13:56.599Z,86.8
2018-12-04T13:14:56.503Z,86.8
2018-12-04T13:15:56.394Z,86.4
2018-12-04T13:16:56.304Z,86
2018-12-04T13:17:56.213Z,86.4
2018-12-04T13:18:56.092Z,86.5
2018-12-04T13:19:56.005Z,86.3
2018-12-04T13:20:56.301Z,86.5
2018-12-04T13:21:56.244Z,86.5
2018-12-04T13:22:56.165Z,86.4
2018-12-04T13:23:56.071Z,86.7
2018-12-04T13:24:55.967Z,86
2018-12-04T13:25:55.869Z,85.9
2018-12-04T13:26:55.785Z,86.1
2018-12-04T13:27:55.713Z,88.6
2018-12-04T13:28:55.648Z,88.4
2018-12-04T13:29:55.565Z,88
2018-12-04T13:30:55.929Z,87.7
2018-12-04T13:31:55.838Z,87.8
2018-12-04T13:32:55.833Z,86.1
2018-12-04T13:40:54.564Z,82.9
2018-12-04T13:41:55.874Z,83.7
2018-12-04T13:42:55.835Z,84.1
2018-12-04T13:43:55.761Z,84
2018-12-04T13:44:55.660Z,84.3
2018-12-04T13:45:55.600Z,84.4
2018-12-04T13:46:55.507Z,84.2
2018-12-04T13:47:55.447Z,84.3
2018-12-04T13:48:55.358Z,84.7
2018-12-04T13:49:55.273Z,85.3